Terminal Aerodrome Forecast
Issued by NWS Green Bay, WI

Home | Current Version | Previous Version | Graphics & Text | Print | Product List | Glossary On
Versions: 1 2 3 4 5 6 7 8 9 10 11 12 13 14 15 16
000
FTUS43 KGRB 010540
TAFGRB
TAF
KGRB 010540Z 0106/0206 04020G28KT P6SM VCSH SCT050 BKN100
     FM010900 02015G20KT P6SM VCSH SCT035 BKN050
     FM011400 04013G20KT P6SM VCSH BKN035 BKN100
     FM011800 05015G25KT P6SM SCT040 BKN100
     FM012300 05009KT P6SM SCT100=

USA.gov is the U.S. government's official web portal to all federal, state and local government web resources and services.